sensor_id;sensor_type;location;lat;lon;timestamp;P1;durP1;ratioP1;P2;durP2;ratioP2
12756;SDS011;31601;48.042;12.240;2022-12-16T00:01:02;42.50;;;22.90;;
12756;SDS011;31601;48.042;12.240;2022-12-16T00:03:30;44.87;;;22.83;;
12756;SDS011;31601;48.042;12.240;2022-12-16T00:05:57;44.30;;;23.53;;
12756;SDS011;31601;48.042;12.240;2022-12-16T00:08:24;42.83;;;22.57;;
12756;SDS011;31601;48.042;12.240;2022-12-16T00:10:55;46.27;;;23.87;;
12756;SDS011;31601;48.042;12.240;2022-12-16T00:13:23;48.17;;;24.37;;
12756;SDS011;31601;48.042;12.240;2022-12-16T00:15:51;42.73;;;22.27;;
12756;SDS011;31601;48.042;12.240;2022-12-16T00:18:18;44.90;;;23.73;;
12756;SDS011;31601;48.042;12.240;2022-12-16T00:20:45;46.00;;;23.63;;
12756;SDS011;31601;48.042;12.240;2022-12-16T00:23:12;43.43;;;22.70;;
12756;SDS011;31601;48.042;12.240;2022-12-16T00:25:40;46.60;;;24.43;;
12756;SDS011;31601;48.042;12.240;2022-12-16T00:28:08;42.83;;;23.63;;
12756;SDS011;31601;48.042;12.240;2022-12-16T00:30:34;50.77;;;25.83;;
12756;SDS011;31601;48.042;12.240;2022-12-16T00:33:02;52.30;;;25.93;;
12756;SDS011;31601;48.042;12.240;2022-12-16T00:35:29;48.30;;;25.27;;
12756;SDS011;31601;48.042;12.240;2022-12-16T00:37:56;47.37;;;25.30;;
12756;SDS011;31601;48.042;12.240;2022-12-16T00:40:23;56.07;;;26.90;;
12756;SDS011;31601;48.042;12.240;2022-12-16T00:42:50;54.97;;;26.60;;
12756;SDS011;31601;48.042;12.240;2022-12-16T00:45:16;55.73;;;27.03;;
12756;SDS011;31601;48.042;12.240;2022-12-16T00:47:43;53.70;;;26.23;;
12756;SDS011;31601;48.042;12.240;2022-12-16T00:50:11;52.40;;;26.50;;
12756;SDS011;31601;48.042;12.240;2022-12-16T00:52:37;54.23;;;27.20;;
12756;SDS011;31601;48.042;12.240;2022-12-16T00:55:04;57.20;;;28.87;;
12756;SDS011;31601;48.042;12.240;2022-12-16T00:57:31;55.17;;;27.50;;
12756;SDS011;31601;48.042;12.240;2022-12-16T00:59:58;47.70;;;25.13;;
12756;SDS011;31601;48.042;12.240;2022-12-16T01:02:25;52.53;;;25.37;;
12756;SDS011;31601;48.042;12.240;2022-12-16T01:04:51;51.50;;;25.50;;
12756;SDS011;31601;48.042;12.240;2022-12-16T01:07:19;54.27;;;26.57;;
12756;SDS011;31601;48.042;12.240;2022-12-16T01:09:46;54.43;;;27.00;;
12756;SDS011;31601;48.042;12.240;2022-12-16T01:12:12;56.60;;;27.37;;
12756;SDS011;31601;48.042;12.240;2022-12-16T01:14:39;51.43;;;25.53;;
12756;SDS011;31601;48.042;12.240;2022-12-16T01:17:05;50.00;;;24.73;;
12756;SDS011;31601;48.042;12.240;2022-12-16T01:19:32;50.07;;;24.43;;
12756;SDS011;31601;48.042;12.240;2022-12-16T01:21:59;51.30;;;25.17;;
12756;SDS011;31601;48.042;12.240;2022-12-16T01:24:27;48.93;;;25.87;;
12756;SDS011;31601;48.042;12.240;2022-12-16T01:26:53;51.83;;;26.37;;
12756;SDS011;31601;48.042;12.240;2022-12-16T01:29:20;48.83;;;26.67;;
12756;SDS011;31601;48.042;12.240;2022-12-16T01:31:46;48.73;;;25.00;;
12756;SDS011;31601;48.042;12.240;2022-12-16T01:34:13;48.77;;;25.77;;
12756;SDS011;31601;48.042;12.240;2022-12-16T01:36:40;48.73;;;24.60;;
12756;SDS011;31601;48.042;12.240;2022-12-16T01:39:07;46.00;;;23.97;;
12756;SDS011;31601;48.042;12.240;2022-12-16T01:41:36;47.20;;;24.60;;
12756;SDS011;31601;48.042;12.240;2022-12-16T01:44:10;47.17;;;25.57;;
12756;SDS011;31601;48.042;12.240;2022-12-16T01:46:39;39.63;;;22.77;;
12756;SDS011;31601;48.042;12.240;2022-12-16T01:49:07;52.50;;;25.63;;
12756;SDS011;31601;48.042;12.240;2022-12-16T01:51:41;47.37;;;23.53;;
12756;SDS011;31601;48.042;12.240;2022-12-16T01:54:10;45.53;;;23.00;;
12756;SDS011;31601;48.042;12.240;2022-12-16T01:56:42;40.77;;;21.63;;
12756;SDS011;31601;48.042;12.240;2022-12-16T01:59:14;41.20;;;22.53;;
12756;SDS011;31601;48.042;12.240;2022-12-16T02:01:44;46.37;;;23.30;;
12756;SDS011;31601;48.042;12.240;2022-12-16T02:04:11;44.90;;;23.73;;
12756;SDS011;31601;48.042;12.240;2022-12-16T02:06:38;42.23;;;21.97;;
12756;SDS011;31601;48.042;12.240;2022-12-16T02:09:05;46.63;;;23.37;;
12756;SDS011;31601;48.042;12.240;2022-12-16T02:11:44;41.37;;;21.53;;
12756;SDS011;31601;48.042;12.240;2022-12-16T02:14:26;44.23;;;23.13;;
12756;SDS011;31601;48.042;12.240;2022-12-16T02:17:05;42.50;;;21.47;;
12756;SDS011;31601;48.042;12.240;2022-12-16T02:19:47;41.33;;;21.60;;
12756;SDS011;31601;48.042;12.240;2022-12-16T02:22:36;40.90;;;20.97;;
12756;SDS011;31601;48.042;12.240;2022-12-16T02:25:22;45.67;;;22.20;;
12756;SDS011;31601;48.042;12.240;2022-12-16T02:28:05;39.90;;;20.93;;
12756;SDS011;31601;48.042;12.240;2022-12-16T02:33:43;40.67;;;20.50;;
12756;SDS011;31601;48.042;12.240;2022-12-16T02:36:21;43.53;;;21.43;;
12756;SDS011;31601;48.042;12.240;2022-12-16T02:38:55;42.37;;;23.23;;
12756;SDS011;31601;48.042;12.240;2022-12-16T02:41:28;40.17;;;21.87;;
12756;SDS011;31601;48.042;12.240;2022-12-16T02:44:03;38.80;;;21.50;;
12756;SDS011;31601;48.042;12.240;2022-12-16T02:46:37;42.00;;;21.67;;
12756;SDS011;31601;48.042;12.240;2022-12-16T02:49:08;39.57;;;21.10;;
12756;SDS011;31601;48.042;12.240;2022-12-16T02:51:50;38.60;;;21.97;;
12756;SDS011;31601;48.042;12.240;2022-12-16T02:54:17;40.33;;;21.87;;
12756;SDS011;31601;48.042;12.240;2022-12-16T02:56:47;39.70;;;21.50;;
12756;SDS011;31601;48.042;12.240;2022-12-16T02:59:21;43.27;;;22.23;;
12756;SDS011;31601;48.042;12.240;2022-12-16T03:01:54;39.37;;;22.67;;
12756;SDS011;31601;48.042;12.240;2022-12-16T03:04:30;39.13;;;21.97;;
12756;SDS011;31601;48.042;12.240;2022-12-16T03:07:00;42.23;;;22.20;;
12756;SDS011;31601;48.042;12.240;2022-12-16T03:09:28;40.10;;;22.97;;
12756;SDS011;31601;48.042;12.240;2022-12-16T03:11:58;38.10;;;21.43;;
12756;SDS011;31601;48.042;12.240;2022-12-16T03:14:30;39.97;;;22.20;;
12756;SDS011;31601;48.042;12.240;2022-12-16T03:17:01;43.83;;;24.13;;
12756;SDS011;31601;48.042;12.240;2022-12-16T03:19:28;40.87;;;22.90;;
12756;SDS011;31601;48.042;12.240;2022-12-16T03:21:58;42.00;;;22.13;;
12756;SDS011;31601;48.042;12.240;2022-12-16T03:24:27;41.93;;;22.50;;
12756;SDS011;31601;48.042;12.240;2022-12-16T03:26:55;44.83;;;23.37;;
12756;SDS011;31601;48.042;12.240;2022-12-16T03:29:34;43.80;;;24.37;;
12756;SDS011;31601;48.042;12.240;2022-12-16T03:32:08;40.57;;;23.40;;
12756;SDS011;31601;48.042;12.240;2022-12-16T03:34:38;45.87;;;24.00;;
12756;SDS011;31601;48.042;12.240;2022-12-16T03:37:07;46.83;;;23.13;;
12756;SDS011;31601;48.042;12.240;2022-12-16T03:39:37;49.43;;;25.50;;
12756;SDS011;31601;48.042;12.240;2022-12-16T03:42:07;45.20;;;24.10;;
12756;SDS011;31601;48.042;12.240;2022-12-16T03:44:35;43.43;;;24.63;;
12756;SDS011;31601;48.042;12.240;2022-12-16T03:47:02;45.40;;;24.47;;
12756;SDS011;31601;48.042;12.240;2022-12-16T03:49:30;48.00;;;25.73;;
12756;SDS011;31601;48.042;12.240;2022-12-16T03:51:56;48.97;;;24.47;;
12756;SDS011;31601;48.042;12.240;2022-12-16T03:54:23;52.30;;;25.43;;
12756;SDS011;31601;48.042;12.240;2022-12-16T03:56:50;50.33;;;26.30;;
12756;SDS011;31601;48.042;12.240;2022-12-16T03:59:16;52.57;;;27.20;;
12756;SDS011;31601;48.042;12.240;2022-12-16T04:01:43;50.00;;;26.37;;
12756;SDS011;31601;48.042;12.240;2022-12-16T04:04:10;50.13;;;26.40;;
12756;SDS011;31601;48.042;12.240;2022-12-16T04:06:37;55.50;;;26.43;;
12756;SDS011;31601;48.042;12.240;2022-12-16T04:09:05;49.30;;;25.40;;
12756;SDS011;31601;48.042;12.240;2022-12-16T04:11:32;52.93;;;26.43;;
12756;SDS011;31601;48.042;12.240;2022-12-16T04:14:16;54.90;;;27.27;;
12756;SDS011;31601;48.042;12.240;2022-12-16T04:17:00;46.93;;;25.00;;
12756;SDS011;31601;48.042;12.240;2022-12-16T04:19:44;50.37;;;24.10;;
12756;SDS011;31601;48.042;12.240;2022-12-16T04:22:31;49.13;;;25.60;;
12756;SDS011;31601;48.042;12.240;2022-12-16T04:25:19;54.90;;;26.83;;
12756;SDS011;31601;48.042;12.240;2022-12-16T04:27:47;49.57;;;26.53;;
12756;SDS011;31601;48.042;12.240;2022-12-16T04:30:14;47.80;;;25.97;;
12756;SDS011;31601;48.042;12.240;2022-12-16T04:32:45;52.83;;;25.47;;
12756;SDS011;31601;48.042;12.240;2022-12-16T04:35:31;56.00;;;26.87;;
12756;SDS011;31601;48.042;12.240;2022-12-16T04:38:17;48.60;;;24.80;;
12756;SDS011;31601;48.042;12.240;2022-12-16T04:41:01;53.17;;;26.77;;
12756;SDS011;31601;48.042;12.240;2022-12-16T04:43:45;48.80;;;24.57;;
12756;SDS011;31601;48.042;12.240;2022-12-16T04:46:29;45.73;;;24.63;;
12756;SDS011;31601;48.042;12.240;2022-12-16T04:49:13;49.57;;;24.93;;
12756;SDS011;31601;48.042;12.240;2022-12-16T04:51:57;46.07;;;24.43;;
12756;SDS011;31601;48.042;12.240;2022-12-16T04:54:43;49.27;;;24.70;;
12756;SDS011;31601;48.042;12.240;2022-12-16T04:57:27;47.73;;;25.30;;
12756;SDS011;31601;48.042;12.240;2022-12-16T05:00:12;46.37;;;23.43;;
12756;SDS011;31601;48.042;12.240;2022-12-16T05:02:56;47.33;;;23.57;;
12756;SDS011;31601;48.042;12.240;2022-12-16T05:05:41;43.07;;;23.67;;
12756;SDS011;31601;48.042;12.240;2022-12-16T05:08:25;43.43;;;24.70;;
12756;SDS011;31601;48.042;12.240;2022-12-16T05:11:10;48.90;;;24.53;;
12756;SDS011;31601;48.042;12.240;2022-12-16T05:13:54;45.40;;;23.53;;
12756;SDS011;31601;48.042;12.240;2022-12-16T05:16:38;43.50;;;23.87;;
12756;SDS011;31601;48.042;12.240;2022-12-16T05:19:22;52.27;;;24.33;;
12756;SDS011;31601;48.042;12.240;2022-12-16T05:22:06;50.40;;;24.13;;
12756;SDS011;31601;48.042;12.240;2022-12-16T05:24:51;44.87;;;24.13;;
12756;SDS011;31601;48.042;12.240;2022-12-16T05:27:36;51.53;;;25.73;;
12756;SDS011;31601;48.042;12.240;2022-12-16T05:30:20;45.43;;;25.77;;
12756;SDS011;31601;48.042;12.240;2022-12-16T05:33:04;45.90;;;24.67;;
12756;SDS011;31601;48.042;12.240;2022-12-16T05:35:48;47.77;;;24.17;;
12756;SDS011;31601;48.042;12.240;2022-12-16T05:38:33;43.30;;;22.90;;
12756;SDS011;31601;48.042;12.240;2022-12-16T05:41:17;42.70;;;23.50;;
12756;SDS011;31601;48.042;12.240;2022-12-16T05:43:59;45.80;;;24.80;;
12756;SDS011;31601;48.042;12.240;2022-12-16T05:46:43;43.23;;;21.43;;
12756;SDS011;31601;48.042;12.240;2022-12-16T05:49:27;45.17;;;23.60;;
12756;SDS011;31601;48.042;12.240;2022-12-16T05:52:11;46.27;;;24.20;;
12756;SDS011;31601;48.042;12.240;2022-12-16T05:54:55;50.13;;;24.70;;
12756;SDS011;31601;48.042;12.240;2022-12-16T05:57:39;47.30;;;25.50;;
12756;SDS011;31601;48.042;12.240;2022-12-16T06:00:25;51.97;;;24.67;;
12756;SDS011;31601;48.042;12.240;2022-12-16T06:03:09;48.00;;;23.60;;
12756;SDS011;31601;48.042;12.240;2022-12-16T06:05:53;41.30;;;23.70;;
12756;SDS011;31601;48.042;12.240;2022-12-16T06:08:37;45.20;;;23.30;;
12756;SDS011;31601;48.042;12.240;2022-12-16T06:11:21;47.33;;;27.30;;
12756;SDS011;31601;48.042;12.240;2022-12-16T06:14:05;47.17;;;28.83;;
12756;SDS011;31601;48.042;12.240;2022-12-16T06:16:51;46.37;;;28.07;;
12756;SDS011;31601;48.042;12.240;2022-12-16T06:19:35;47.73;;;28.17;;
12756;SDS011;31601;48.042;12.240;2022-12-16T06:22:19;46.93;;;28.83;;
12756;SDS011;31601;48.042;12.240;2022-12-16T06:25:03;42.90;;;26.87;;
12756;SDS011;31601;48.042;12.240;2022-12-16T06:27:49;43.13;;;28.97;;
12756;SDS011;31601;48.042;12.240;2022-12-16T06:30:34;44.97;;;28.40;;
12756;SDS011;31601;48.042;12.240;2022-12-16T06:33:19;43.93;;;26.80;;
12756;SDS011;31601;48.042;12.240;2022-12-16T06:36:04;46.20;;;26.93;;
12756;SDS011;31601;48.042;12.240;2022-12-16T06:38:49;43.83;;;26.97;;
12756;SDS011;31601;48.042;12.240;2022-12-16T06:41:33;41.90;;;26.77;;
12756;SDS011;31601;48.042;12.240;2022-12-16T06:44:17;49.57;;;29.67;;
12756;SDS011;31601;48.042;12.240;2022-12-16T06:47:01;45.23;;;27.73;;
12756;SDS011;31601;48.042;12.240;2022-12-16T06:49:47;50.57;;;28.77;;
12756;SDS011;31601;48.042;12.240;2022-12-16T06:52:30;51.70;;;30.40;;
12756;SDS011;31601;48.042;12.240;2022-12-16T06:55:15;54.60;;;31.57;;
12756;SDS011;31601;48.042;12.240;2022-12-16T06:57:59;50.73;;;29.83;;
12756;SDS011;31601;48.042;12.240;2022-12-16T07:00:43;53.80;;;31.70;;
12756;SDS011;31601;48.042;12.240;2022-12-16T07:03:27;56.77;;;32.57;;
12756;SDS011;31601;48.042;12.240;2022-12-16T07:06:13;53.47;;;30.30;;
12756;SDS011;31601;48.042;12.240;2022-12-16T07:08:57;55.83;;;32.17;;
12756;SDS011;31601;48.042;12.240;2022-12-16T07:11:41;59.27;;;32.20;;
12756;SDS011;31601;48.042;12.240;2022-12-16T07:14:33;65.13;;;33.37;;
12756;SDS011;31601;48.042;12.240;2022-12-16T07:17:18;59.80;;;32.10;;
12756;SDS011;31601;48.042;12.240;2022-12-16T07:20:02;59.87;;;32.23;;
12756;SDS011;31601;48.042;12.240;2022-12-16T07:22:48;59.23;;;29.87;;
12756;SDS011;31601;48.042;12.240;2022-12-16T07:25:32;60.27;;;33.37;;
12756;SDS011;31601;48.042;12.240;2022-12-16T07:28:17;61.67;;;33.70;;
12756;SDS011;31601;48.042;12.240;2022-12-16T07:31:01;68.27;;;34.70;;
12756;SDS011;31601;48.042;12.240;2022-12-16T07:33:45;66.40;;;34.07;;
12756;SDS011;31601;48.042;12.240;2022-12-16T07:36:29;60.10;;;32.27;;
12756;SDS011;31601;48.042;12.240;2022-12-16T07:39:14;61.13;;;32.83;;
12756;SDS011;31601;48.042;12.240;2022-12-16T07:41:58;63.47;;;34.60;;
12756;SDS011;31601;48.042;12.240;2022-12-16T07:44:42;72.23;;;36.27;;
12756;SDS011;31601;48.042;12.240;2022-12-16T07:47:26;70.63;;;35.57;;
12756;SDS011;31601;48.042;12.240;2022-12-16T07:50:10;63.47;;;34.30;;
12756;SDS011;31601;48.042;12.240;2022-12-16T07:52:55;63.47;;;33.43;;
12756;SDS011;31601;48.042;12.240;2022-12-16T07:55:41;64.43;;;34.53;;
12756;SDS011;31601;48.042;12.240;2022-12-16T07:58:25;61.03;;;33.30;;
12756;SDS011;31601;48.042;12.240;2022-12-16T08:01:10;66.23;;;33.87;;
12756;SDS011;31601;48.042;12.240;2022-12-16T08:03:54;61.87;;;34.13;;
12756;SDS011;31601;48.042;12.240;2022-12-16T08:06:38;61.27;;;33.47;;
12756;SDS011;31601;48.042;12.240;2022-12-16T08:09:23;59.53;;;34.67;;
12756;SDS011;31601;48.042;12.240;2022-12-16T08:12:09;59.17;;;33.60;;
12756;SDS011;31601;48.042;12.240;2022-12-16T08:14:53;57.37;;;32.83;;
12756;SDS011;31601;48.042;12.240;2022-12-16T08:17:37;54.17;;;30.57;;
12756;SDS011;31601;48.042;12.240;2022-12-16T08:20:25;57.27;;;31.17;;
12756;SDS011;31601;48.042;12.240;2022-12-16T08:23:09;53.37;;;30.67;;
12756;SDS011;31601;48.042;12.240;2022-12-16T08:25:53;54.73;;;30.73;;
12756;SDS011;31601;48.042;12.240;2022-12-16T08:28:39;52.83;;;31.10;;
12756;SDS011;31601;48.042;12.240;2022-12-16T08:31:23;55.30;;;32.03;;
12756;SDS011;31601;48.042;12.240;2022-12-16T08:34:07;54.10;;;31.07;;
12756;SDS011;31601;48.042;12.240;2022-12-16T08:36:51;58.97;;;32.57;;
12756;SDS011;31601;48.042;12.240;2022-12-16T08:39:35;57.00;;;32.67;;
12756;SDS011;31601;48.042;12.240;2022-12-16T08:42:28;62.83;;;34.43;;
12756;SDS011;31601;48.042;12.240;2022-12-16T08:45:14;56.53;;;32.10;;
12756;SDS011;31601;48.042;12.240;2022-12-16T08:47:58;65.23;;;35.07;;
12756;SDS011;31601;48.042;12.240;2022-12-16T08:50:42;59.33;;;34.00;;
12756;SDS011;31601;48.042;12.240;2022-12-16T08:53:27;60.33;;;33.80;;
12756;SDS011;31601;48.042;12.240;2022-12-16T08:56:11;64.10;;;35.70;;
12756;SDS011;31601;48.042;12.240;2022-12-16T08:58:55;63.20;;;34.63;;
12756;SDS011;31601;48.042;12.240;2022-12-16T09:01:40;69.40;;;36.13;;
12756;SDS011;31601;48.042;12.240;2022-12-16T09:04:24;67.30;;;36.30;;
12756;SDS011;31601;48.042;12.240;2022-12-16T09:07:08;65.77;;;36.53;;
12756;SDS011;31601;48.042;12.240;2022-12-16T09:09:52;74.70;;;39.47;;
12756;SDS011;31601;48.042;12.240;2022-12-16T09:12:36;73.80;;;36.70;;
12756;SDS011;31601;48.042;12.240;2022-12-16T09:15:21;60.73;;;35.70;;
12756;SDS011;31601;48.042;12.240;2022-12-16T09:18:07;62.10;;;36.90;;
12756;SDS011;31601;48.042;12.240;2022-12-16T09:20:50;65.27;;;37.80;;
12756;SDS011;31601;48.042;12.240;2022-12-16T09:23:34;75.47;;;38.67;;
12756;SDS011;31601;48.042;12.240;2022-12-16T09:26:18;67.63;;;37.57;;
12756;SDS011;31601;48.042;12.240;2022-12-16T09:29:02;65.00;;;36.37;;
12756;SDS011;31601;48.042;12.240;2022-12-16T09:31:47;61.07;;;35.37;;
12756;SDS011;31601;48.042;12.240;2022-12-16T09:34:33;59.17;;;33.37;;
12756;SDS011;31601;48.042;12.240;2022-12-16T09:37:17;59.13;;;34.00;;
12756;SDS011;31601;48.042;12.240;2022-12-16T09:40:10;66.27;;;35.53;;
12756;SDS011;31601;48.042;12.240;2022-12-16T09:42:59;57.40;;;32.93;;
12756;SDS011;31601;48.042;12.240;2022-12-16T09:45:47;59.30;;;33.97;;
12756;SDS011;31601;48.042;12.240;2022-12-16T09:48:39;62.83;;;33.37;;
12756;SDS011;31601;48.042;12.240;2022-12-16T09:51:32;61.90;;;33.37;;
12756;SDS011;31601;48.042;12.240;2022-12-16T09:54:16;62.33;;;34.60;;
12756;SDS011;31601;48.042;12.240;2022-12-16T09:57:06;62.80;;;35.37;;
12756;SDS011;31601;48.042;12.240;2022-12-16T09:59:52;59.00;;;34.00;;
12756;SDS011;31601;48.042;12.240;2022-12-16T10:02:39;59.77;;;34.07;;
12756;SDS011;31601;48.042;12.240;2022-12-16T10:05:26;61.00;;;34.43;;
12756;SDS011;31601;48.042;12.240;2022-12-16T10:08:20;60.93;;;31.37;;
12756;SDS011;31601;48.042;12.240;2022-12-16T10:11:10;60.77;;;34.17;;
12756;SDS011;31601;48.042;12.240;2022-12-16T10:14:01;60.97;;;33.13;;
12756;SDS011;31601;48.042;12.240;2022-12-16T10:16:50;60.83;;;33.17;;
12756;SDS011;31601;48.042;12.240;2022-12-16T10:19:42;57.03;;;33.03;;
12756;SDS011;31601;48.042;12.240;2022-12-16T10:22:36;56.20;;;31.40;;
12756;SDS011;31601;48.042;12.240;2022-12-16T10:25:30;55.60;;;32.17;;
12756;SDS011;31601;48.042;12.240;2022-12-16T10:28:22;57.57;;;32.73;;
12756;SDS011;31601;48.042;12.240;2022-12-16T10:31:19;58.27;;;33.17;;
12756;SDS011;31601;48.042;12.240;2022-12-16T10:34:04;53.80;;;30.87;;
12756;SDS011;31601;48.042;12.240;2022-12-16T10:36:53;53.97;;;32.13;;
12756;SDS011;31601;48.042;12.240;2022-12-16T10:39:39;57.53;;;31.57;;
12756;SDS011;31601;48.042;12.240;2022-12-16T10:42:29;53.60;;;30.80;;
12756;SDS011;31601;48.042;12.240;2022-12-16T10:45:14;57.07;;;33.43;;
12756;SDS011;31601;48.042;12.240;2022-12-16T10:48:01;55.00;;;32.60;;
12756;SDS011;31601;48.042;12.240;2022-12-16T10:50:45;55.60;;;33.53;;
12756;SDS011;31601;48.042;12.240;2022-12-16T10:53:29;56.00;;;32.53;;
12756;SDS011;31601;48.042;12.240;2022-12-16T10:56:17;55.27;;;32.27;;
12756;SDS011;31601;48.042;12.240;2022-12-16T10:59:21;51.47;;;31.07;;
12756;SDS011;31601;48.042;12.240;2022-12-16T11:02:17;49.67;;;29.90;;
12756;SDS011;31601;48.042;12.240;2022-12-16T11:05:04;51.93;;;30.20;;
12756;SDS011;31601;48.042;12.240;2022-12-16T11:08:10;49.63;;;29.93;;
12756;SDS011;31601;48.042;12.240;2022-12-16T11:11:11;50.17;;;29.73;;
12756;SDS011;31601;48.042;12.240;2022-12-16T11:14:07;47.03;;;28.40;;
12756;SDS011;31601;48.042;12.240;2022-12-16T11:17:18;52.13;;;30.47;;
12756;SDS011;31601;48.042;12.240;2022-12-16T11:20:13;44.73;;;27.97;;
12756;SDS011;31601;48.042;12.240;2022-12-16T11:23:06;47.67;;;28.07;;
12756;SDS011;31601;48.042;12.240;2022-12-16T11:26:05;43.37;;;28.03;;
12756;SDS011;31601;48.042;12.240;2022-12-16T11:31:59;48.97;;;29.77;;
12756;SDS011;31601;48.042;12.240;2022-12-16T11:34:48;45.27;;;27.50;;
12756;SDS011;31601;48.042;12.240;2022-12-16T11:37:35;44.23;;;28.03;;
12756;SDS011;31601;48.042;12.240;2022-12-16T11:40:21;44.67;;;27.43;;
12756;SDS011;31601;48.042;12.240;2022-12-16T11:43:07;47.90;;;28.20;;
12756;SDS011;31601;48.042;12.240;2022-12-16T11:45:56;43.97;;;27.10;;
12756;SDS011;31601;48.042;12.240;2022-12-16T11:48:43;42.73;;;26.53;;
12756;SDS011;31601;48.042;12.240;2022-12-16T11:51:34;44.27;;;27.67;;
12756;SDS011;31601;48.042;12.240;2022-12-16T11:54:21;42.63;;;27.00;;
12756;SDS011;31601;48.042;12.240;2022-12-16T11:57:14;44.00;;;27.67;;
12756;SDS011;31601;48.042;12.240;2022-12-16T12:00:03;42.20;;;26.33;;
12756;SDS011;31601;48.042;12.240;2022-12-16T12:02:51;41.93;;;25.73;;
12756;SDS011;31601;48.042;12.240;2022-12-16T12:08:45;43.87;;;28.23;;
12756;SDS011;31601;48.042;12.240;2022-12-16T12:11:33;45.77;;;27.07;;
12756;SDS011;31601;48.042;12.240;2022-12-16T12:14:32;39.77;;;25.43;;
12756;SDS011;31601;48.042;12.240;2022-12-16T12:17:23;43.13;;;27.40;;
12756;SDS011;31601;48.042;12.240;2022-12-16T12:20:30;42.60;;;27.80;;
12756;SDS011;31601;48.042;12.240;2022-12-16T12:23:24;40.27;;;25.90;;
12756;SDS011;31601;48.042;12.240;2022-12-16T12:26:18;40.80;;;26.13;;
12756;SDS011;31601;48.042;12.240;2022-12-16T12:29:11;43.00;;;26.33;;
12756;SDS011;31601;48.042;12.240;2022-12-16T12:32:01;43.93;;;27.00;;
12756;SDS011;31601;48.042;12.240;2022-12-16T12:35:08;43.07;;;28.10;;
12756;SDS011;31601;48.042;12.240;2022-12-16T12:38:23;42.60;;;26.90;;
12756;SDS011;31601;48.042;12.240;2022-12-16T12:41:15;40.23;;;26.13;;
12756;SDS011;31601;48.042;12.240;2022-12-16T12:44:07;42.77;;;26.53;;
12756;SDS011;31601;48.042;12.240;2022-12-16T12:47:01;41.80;;;26.67;;
12756;SDS011;31601;48.042;12.240;2022-12-16T12:49:49;43.10;;;26.97;;
12756;SDS011;31601;48.042;12.240;2022-12-16T12:52:49;44.90;;;27.37;;
12756;SDS011;31601;48.042;12.240;2022-12-16T12:55:48;44.47;;;26.87;;
12756;SDS011;31601;48.042;12.240;2022-12-16T12:58:44;41.27;;;25.47;;
12756;SDS011;31601;48.042;12.240;2022-12-16T13:01:32;40.77;;;25.70;;
12756;SDS011;31601;48.042;12.240;2022-12-16T13:04:20;41.73;;;25.27;;
12756;SDS011;31601;48.042;12.240;2022-12-16T13:07:07;37.40;;;25.07;;
12756;SDS011;31601;48.042;12.240;2022-12-16T13:19:40;41.17;;;25.97;;
12756;SDS011;31601;48.042;12.240;2022-12-16T13:22:26;42.53;;;26.00;;
12756;SDS011;31601;48.042;12.240;2022-12-16T13:25:25;39.87;;;25.97;;
12756;SDS011;31601;48.042;12.240;2022-12-16T13:28:19;45.83;;;28.53;;
12756;SDS011;31601;48.042;12.240;2022-12-16T13:31:04;39.93;;;25.60;;
12756;SDS011;31601;48.042;12.240;2022-12-16T13:33:50;43.83;;;28.33;;
12756;SDS011;31601;48.042;12.240;2022-12-16T13:36:36;44.00;;;27.10;;
12756;SDS011;31601;48.042;12.240;2022-12-16T13:39:24;46.73;;;27.77;;
12756;SDS011;31601;48.042;12.240;2022-12-16T13:45:33;46.67;;;27.30;;
12756;SDS011;31601;48.042;12.240;2022-12-16T13:48:30;41.67;;;26.57;;
12756;SDS011;31601;48.042;12.240;2022-12-16T13:54:53;48.37;;;27.37;;
12756;SDS011;31601;48.042;12.240;2022-12-16T13:57:44;45.50;;;27.67;;
12756;SDS011;31601;48.042;12.240;2022-12-16T14:00:31;45.87;;;28.20;;
12756;SDS011;31601;48.042;12.240;2022-12-16T14:03:22;42.20;;;24.53;;
12756;SDS011;31601;48.042;12.240;2022-12-16T14:06:17;44.37;;;25.50;;
12756;SDS011;31601;48.042;12.240;2022-12-16T14:09:05;47.73;;;28.33;;
12756;SDS011;31601;48.042;12.240;2022-12-16T14:12:04;46.93;;;27.73;;
12756;SDS011;31601;48.042;12.240;2022-12-16T14:14:58;48.50;;;29.63;;
12756;SDS011;31601;48.042;12.240;2022-12-16T14:20:25;45.90;;;28.23;;
12756;SDS011;31601;48.042;12.240;2022-12-16T14:23:18;49.87;;;28.50;;
12756;SDS011;31601;48.042;12.240;2022-12-16T14:26:11;45.47;;;27.07;;
12756;SDS011;31601;48.042;12.240;2022-12-16T14:28:58;49.60;;;29.13;;
12756;SDS011;31601;48.042;12.240;2022-12-16T14:31:44;48.13;;;29.13;;
12756;SDS011;31601;48.042;12.240;2022-12-16T14:34:28;51.30;;;29.10;;
12756;SDS011;31601;48.042;12.240;2022-12-16T14:37:18;48.50;;;29.17;;
12756;SDS011;31601;48.042;12.240;2022-12-16T14:40:05;49.00;;;28.73;;
12756;SDS011;31601;48.042;12.240;2022-12-16T14:43:02;46.77;;;27.97;;
12756;SDS011;31601;48.042;12.240;2022-12-16T14:45:55;51.57;;;29.60;;
12756;SDS011;31601;48.042;12.240;2022-12-16T14:48:39;46.67;;;28.60;;
12756;SDS011;31601;48.042;12.240;2022-12-16T14:51:23;52.27;;;30.60;;
12756;SDS011;31601;48.042;12.240;2022-12-16T14:54:16;49.27;;;28.80;;
12756;SDS011;31601;48.042;12.240;2022-12-16T14:57:09;50.63;;;29.23;;
12756;SDS011;31601;48.042;12.240;2022-12-16T14:59:59;52.20;;;29.53;;
12756;SDS011;31601;48.042;12.240;2022-12-16T15:02:45;50.63;;;29.17;;
12756;SDS011;31601;48.042;12.240;2022-12-16T15:05:32;50.37;;;28.90;;
12756;SDS011;31601;48.042;12.240;2022-12-16T15:08:18;47.57;;;28.13;;
12756;SDS011;31601;48.042;12.240;2022-12-16T15:11:03;45.40;;;28.47;;
12756;SDS011;31601;48.042;12.240;2022-12-16T15:13:52;48.53;;;29.93;;
12756;SDS011;31601;48.042;12.240;2022-12-16T15:16:39;57.10;;;41.87;;
12756;SDS011;31601;48.042;12.240;2022-12-16T15:19:26;45.93;;;30.83;;
12756;SDS011;31601;48.042;12.240;2022-12-16T15:22:16;49.30;;;31.07;;
12756;SDS011;31601;48.042;12.240;2022-12-16T15:25:00;50.50;;;29.83;;
12756;SDS011;31601;48.042;12.240;2022-12-16T15:27:51;49.67;;;30.37;;
12756;SDS011;31601;48.042;12.240;2022-12-16T15:30:37;64.10;;;30.53;;
12756;SDS011;31601;48.042;12.240;2022-12-16T15:33:23;58.03;;;30.53;;
12756;SDS011;31601;48.042;12.240;2022-12-16T15:36:22;46.03;;;27.43;;
12756;SDS011;31601;48.042;12.240;2022-12-16T15:39:10;42.73;;;27.03;;
12756;SDS011;31601;48.042;12.240;2022-12-16T15:42:00;46.63;;;27.27;;
12756;SDS011;31601;48.042;12.240;2022-12-16T15:44:45;42.93;;;27.73;;
12756;SDS011;31601;48.042;12.240;2022-12-16T15:47:32;46.60;;;28.53;;
12756;SDS011;31601;48.042;12.240;2022-12-16T15:50:18;47.33;;;28.83;;
12756;SDS011;31601;48.042;12.240;2022-12-16T15:53:22;41.07;;;26.37;;
12756;SDS011;31601;48.042;12.240;2022-12-16T15:56:17;41.20;;;26.30;;
12756;SDS011;31601;48.042;12.240;2022-12-16T15:59:14;44.47;;;26.53;;
12756;SDS011;31601;48.042;12.240;2022-12-16T16:02:06;46.57;;;27.77;;
12756;SDS011;31601;48.042;12.240;2022-12-16T16:04:58;41.43;;;26.20;;